Time;durP1;ratioP1;P1;durP2;ratioP2;P2;SDS_P1;SDS_P2;PMS_P1;PMS_P2;Temp;Humidity;BMP_temperature;BMP_pressure;BME280_temperature;BME280_humidity;BME280_pressure;Samples;Min_cycle;Max_cycle;Signal;HPM_P1;HPM_P2
2023/01/16 00:01:50;;;;;;;5.63;1.38;;;;;;;8.79;63.22;99580.81;5047787;28;20064;-66
2023/01/16 00:04:18;;;;;;;5.32;1.40;;;;;;;8.78;63.10;99571.16;5043129;28;20072;-65
2023/01/16 00:06:45;;;;;;;6.15;1.33;;;;;;;8.77;63.39;99571.41;5043410;28;20064;-66
2023/01/16 00:09:13;;;;;;;4.13;1.58;;;;;;;8.79;63.40;99566.59;5046086;28;20064;-66
2023/01/16 00:11:41;;;;;;;3.10;1.17;;;;;;;8.78;63.26;99556.94;5044315;28;20105;-66
2023/01/16 00:14:09;;;;;;;2.88;1.20;;;;;;;8.78;63.33;99549.72;5048838;28;20049;-66
2023/01/16 00:16:38;;;;;;;2.15;0.90;;;;;;;8.76;63.17;99553.69;5050783;28;20045;-66
2023/01/16 00:19:06;;;;;;;1.98;0.75;;;;;;;8.76;63.21;99551.84;5046665;28;20141;-66
2023/01/16 00:21:33;;;;;;;2.28;0.82;;;;;;;8.76;63.45;99548.34;5044688;28;20053;-66
2023/01/16 00:24:01;;;;;;;3.28;1.10;;;;;;;8.75;63.40;99552.06;5044376;28;20089;-66
2023/01/16 00:26:29;;;;;;;3.38;1.27;;;;;;;8.75;63.26;99546.72;5043188;28;20050;-66
2023/01/16 00:28:57;;;;;;;3.55;1.20;;;;;;;8.74;63.00;99545.91;5042256;28;20454;-65
2023/01/16 00:31:25;;;;;;;3.35;1.48;;;;;;;8.74;63.62;99551.25;5040680;28;20050;-66
2023/01/16 00:33:55;;;;;;;2.75;1.10;;;;;;;8.72;63.43;99536.50;5057570;28;20050;-66
2023/01/16 00:36:22;;;;;;;2.85;1.02;;;;;;;8.64;63.23;99521.66;5037819;28;20057;-66
2023/01/16 00:38:50;;;;;;;3.42;1.10;;;;;;;8.70;63.90;99531.38;5044494;28;20473;-66
2023/01/16 00:41:18;;;;;;;2.78;1.25;;;;;;;8.70;63.36;99525.19;5033329;28;20060;-66
2023/01/16 00:43:46;;;;;;;3.72;1.10;;;;;;;8.69;63.40;99528.94;5041194;28;20049;-66
2023/01/16 00:46:13;;;;;;;2.50;1.10;;;;;;;8.68;63.60;99530.81;5047598;28;20041;-66
2023/01/16 00:48:41;;;;;;;4.15;2.22;;;;;;;8.68;63.83;99516.59;5038557;28;20045;-66
2023/01/16 00:51:10;;;;;;;3.50;1.10;;;;;;;8.68;63.63;99516.59;5034116;28;20045;-66
2023/01/16 00:53:38;;;;;;;2.13;0.93;;;;;;;8.66;63.80;99514.19;5041768;28;20056;-66
2023/01/16 00:56:07;;;;;;;3.03;1.10;;;;;;;8.64;63.29;99505.59;5046695;28;20081;-66
2023/01/16 00:58:35;;;;;;;6.47;1.23;;;;;;;8.64;63.42;99496.75;5047527;28;20056;-66
2023/01/16 01:01:03;;;;;;;3.05;1.73;;;;;;;8.63;63.50;99492.44;5038045;28;20045;-66
2023/01/16 01:03:31;;;;;;;5.03;1.17;;;;;;;8.62;63.64;99488.94;5047990;28;20105;-65
2023/01/16 01:05:59;;;;;;;4.28;1.13;;;;;;;8.52;63.32;99472.72;5048475;28;20073;-66
2023/01/16 01:08:28;;;;;;;5.18;1.40;;;;;;;8.60;63.77;99476.84;5041290;28;20105;-65
2023/01/16 01:10:55;;;;;;;4.75;1.30;;;;;;;8.60;63.61;99474.19;5054870;28;20057;-65
2023/01/16 01:13:23;;;;;;;2.45;1.00;;;;;;;8.60;62.82;99469.63;5040907;28;20053;-67
2023/01/16 01:15:51;;;;;;;2.70;0.90;;;;;;;8.59;62.86;99461.84;5055464;28;20108;-64
2023/01/16 01:18:19;;;;;;;3.60;1.60;;;;;;;8.61;63.69;99465.09;5045024;28;20050;-64
2023/01/16 01:20:47;;;;;;;3.03;1.00;;;;;;;8.58;63.29;99453.00;5048384;28;20056;-64
2023/01/16 01:23:15;;;;;;;5.07;1.65;;;;;;;8.57;63.67;99447.88;5040265;28;20046;-64
2023/01/16 01:25:44;;;;;;;7.20;1.40;;;;;;;8.55;63.73;99445.44;5047470;28;20041;-64
2023/01/16 01:28:12;;;;;;;2.83;1.10;;;;;;;8.55;63.47;99440.09;5043112;28;20101;-64
2023/01/16 01:30:39;;;;;;;3.17;1.25;;;;;;;8.55;63.30;99441.97;5040214;28;20045;-64
2023/01/16 01:33:08;;;;;;;3.00;1.10;;;;;;;8.55;63.44;99433.94;5041296;28;20049;-64
2023/01/16 01:35:36;;;;;;;3.22;1.05;;;;;;;8.54;62.88;99426.94;5051959;28;20096;-64
2023/01/16 01:38:04;;;;;;;3.92;1.02;;;;;;;8.51;63.24;99425.56;5040360;28;20101;-64
2023/01/16 01:40:34;;;;;;;7.10;1.40;;;;;;;8.51;63.30;99422.06;5046880;28;20084;-64
2023/01/16 01:43:03;;;;;;;5.95;1.23;;;;;;;8.51;63.33;99417.53;5046701;28;20052;-64
2023/01/16 01:45:32;;;;;;;2.13;0.90;;;;;;;8.50;62.84;99407.88;5043549;28;20046;-64
2023/01/16 01:48:05;;;;;;;3.33;1.30;;;;;;;8.49;63.01;99395.53;5038062;28;20073;-64
2023/01/16 01:50:43;;;;;;;5.60;1.20;;;;;;;8.49;63.25;99392.88;5051003;28;20049;-64
2023/01/16 01:53:16;;;;;;;3.42;1.13;;;;;;;8.49;63.36;99379.47;5040369;28;21499;-64
2023/01/16 01:55:47;;;;;;;2.38;0.98;;;;;;;8.47;63.00;99368.22;5048120;28;20408;-64
2023/01/16 01:58:22;;;;;;;4.03;1.50;;;;;;;8.48;63.15;99370.63;5040810;28;20150;-64
2023/01/16 02:00:53;;;;;;;4.88;1.45;;;;;;;8.47;63.47;99360.19;5038135;28;20049;-64
2023/01/16 02:03:28;;;;;;;5.30;1.30;;;;;;;8.47;63.67;99354.81;5040392;28;20041;-64
2023/01/16 02:05:58;;;;;;;4.90;1.75;;;;;;;8.46;63.12;99347.84;5040442;28;20089;-64
2023/01/16 02:08:30;;;;;;;6.05;1.52;;;;;;;8.47;62.96;99346.78;5039282;28;20069;-64
2023/01/16 02:11:04;;;;;;;4.90;1.00;;;;;;;8.45;63.02;99343.53;5046835;28;20272;-64
2023/01/16 02:13:33;;;;;;;5.00;1.42;;;;;;;8.44;63.19;99334.69;5044213;28;20045;-64
2023/01/16 02:22:07;;;;;;;5.35;1.33;;;;;;;8.42;62.65;99317.25;5040764;28;20055;-64
2023/01/16 02:25:21;;;;;;;3.13;1.27;;;;;;;8.40;62.88;99308.66;5035462;28;20046;-64
2023/01/16 02:28:09;;;;;;;4.00;1.27;;;;;;;8.38;62.90;99295.53;5031551;28;20080;-64
2023/01/16 02:31:04;;;;;;;1.10;0.75;;;;;;;8.37;62.85;99293.91;5027843;28;20045;-64
2023/01/16 02:33:46;;;;;;;1.63;1.00;;;;;;;8.36;62.89;99286.13;5035772;28;20132;-64
2023/01/16 02:36:21;;;;;;;3.78;1.25;;;;;;;8.35;63.23;99279.16;5041030;28;20124;-64
2023/01/16 02:39:01;;;;;;;3.63;1.70;;;;;;;8.35;63.01;99263.09;5039208;28;20055;-64
2023/01/16 02:41:41;;;;;;;5.68;1.40;;;;;;;8.32;63.25;99259.00;5041338;28;20064;-64
2023/01/16 02:44:19;;;;;;;3.25;1.30;;;;;;;8.32;62.74;99247.50;5046667;28;20308;-64
2023/01/16 02:47:08;;;;;;;4.10;1.17;;;;;;;8.32;63.08;99234.91;5041085;28;20057;-64
2023/01/16 02:49:41;;;;;;;7.13;1.40;;;;;;;8.31;63.65;99221.78;5033752;28;20155;-64
2023/01/16 02:52:14;;;;;;;4.65;1.40;;;;;;;8.28;62.69;99214.25;5040450;28;20045;-64
2023/01/16 02:54:49;;;;;;;7.38;1.42;;;;;;;8.27;63.10;99213.44;5045095;28;20076;-64
2023/01/16 02:57:19;;;;;;;3.83;1.30;;;;;;;8.27;62.57;99209.94;5037321;28;20108;-64
2023/01/16 02:59:49;;;;;;;6.18;1.30;;;;;;;8.25;63.37;99199.50;5038361;28;20134;-64
2023/01/16 03:02:18;;;;;;;3.20;1.10;;;;;;;8.26;63.41;99186.91;5040207;28;20124;-64
2023/01/16 03:04:48;;;;;;;3.40;0.82;;;;;;;8.24;62.59;99184.47;5047424;28;20052;-64
2023/01/16 03:07:54;;;;;;;4.80;1.27;;;;;;;8.24;63.43;99173.78;5044142;28;20053;-64
2023/01/16 03:10:48;;;;;;;4.55;1.30;;;;;;;8.23;63.43;99161.47;5034086;28;20300;-64
2023/01/16 03:13:26;;;;;;;4.65;1.77;;;;;;;8.22;63.22;99151.00;5050017;28;20051;-64
2023/01/16 03:16:02;;;;;;;5.47;1.50;;;;;;;8.22;62.92;99153.69;5039160;28;20057;-64
2023/01/16 03:18:40;;;;;;;3.67;1.23;;;;;;;8.21;63.68;99141.34;5037195;28;20101;-64
2023/01/16 03:21:14;;;;;;;6.63;1.48;;;;;;;8.18;62.93;99133.81;5029964;28;20115;-64
2023/01/16 03:23:52;;;;;;;3.15;1.10;;;;;;;8.17;63.34;99122.31;5043567;28;20136;-64
2023/01/16 03:26:28;;;;;;;4.13;1.20;;;;;;;8.19;63.72;99111.34;5042780;28;20046;-64
2023/01/16 03:29:08;;;;;;;6.05;1.20;;;;;;;8.18;62.79;99110.56;5053209;28;20624;-64
2023/01/16 03:31:41;;;;;;;4.47;1.42;;;;;;;8.12;63.05;99090.94;5044662;28;20132;-64
2023/01/16 03:34:20;;;;;;;4.18;1.42;;;;;;;8.16;62.51;99092.06;5035780;28;20089;-64
2023/01/16 03:36:55;;;;;;;3.45;1.00;;;;;;;8.15;63.33;99087.78;5046703;28;20058;-64
2023/01/16 03:39:26;;;;;;;3.30;0.95;;;;;;;8.14;62.92;99085.34;5044269;28;20109;-64
2023/01/16 03:41:56;;;;;;;4.75;1.40;;;;;;;8.15;63.29;99078.94;5052894;28;20083;-65
2023/01/16 03:44:30;;;;;;;3.70;1.25;;;;;;;8.14;63.66;99061.25;5039763;28;20056;-64
2023/01/16 03:47:01;;;;;;;4.50;1.30;;;;;;;8.15;63.23;99057.53;5047100;28;20107;-65
2023/01/16 03:49:35;;;;;;;6.47;1.42;;;;;;;8.13;62.56;99049.75;5037102;28;20050;-64
2023/01/16 03:52:07;;;;;;;2.22;0.90;;;;;;;8.11;63.18;99035.81;5043334;28;20121;-64
2023/01/16 03:54:43;;;;;;;2.78;1.13;;;;;;;8.11;62.44;99024.31;5042813;28;20063;-64
2023/01/16 03:57:15;;;;;;;3.35;1.20;;;;;;;8.10;63.67;99018.16;5041022;28;20053;-64
2023/01/16 03:59:45;;;;;;;4.70;1.38;;;;;;;8.09;62.54;99015.72;5035208;28;20042;-64
2023/01/16 04:02:18;;;;;;;5.35;1.33;;;;;;;8.07;62.53;98997.25;5053563;28;20083;-64
2023/01/16 04:04:52;;;;;;;2.83;1.42;;;;;;;8.07;63.02;98991.09;5045048;28;20398;-64
2023/01/16 04:07:25;;;;;;;3.80;1.20;;;;;;;8.07;63.39;98989.22;5040531;28;20076;-64
2023/01/16 04:09:58;;;;;;;3.42;1.30;;;;;;;8.06;63.16;98984.94;5038513;28;20041;-64
2023/01/16 04:12:30;;;;;;;4.55;1.30;;;;;;;8.06;63.59;98973.41;5042634;28;20052;-64
2023/01/16 04:15:01;;;;;;;6.75;2.15;;;;;;;8.04;63.41;98965.66;5042857;28;20141;-64
2023/01/16 04:17:30;;;;;;;3.08;1.00;;;;;;;8.04;63.01;98956.81;5045530;28;20475;-64
2023/01/16 04:20:00;;;;;;;3.97;1.20;;;;;;;8.03;63.91;98947.97;5035933;28;20061;-64
2023/01/16 04:22:29;;;;;;;4.15;1.15;;;;;;;8.02;62.86;98937.53;5055732;28;20121;-64
2023/01/16 04:24:59;;;;;;;2.85;1.30;;;;;;;8.03;63.44;98933.78;5038579;28;20038;-64
2023/01/16 04:27:27;;;;;;;6.53;1.27;;;;;;;8.02;63.51;98924.16;5036087;28;20076;-64
2023/01/16 04:29:55;;;;;;;4.13;1.45;;;;;;;8.03;63.03;98913.19;5035032;28;20050;-64
2023/01/16 04:32:23;;;;;;;5.45;1.40;;;;;;;8.01;63.64;98904.63;5041876;28;20117;-64
2023/01/16 04:34:51;;;;;;;5.43;1.60;;;;;;;8.01;63.58;98885.09;5043935;28;20095;-64
2023/01/16 04:37:20;;;;;;;4.22;1.10;;;;;;;8.01;63.20;98875.19;5043515;28;20356;-64
2023/01/16 04:39:49;;;;;;;3.33;1.70;;;;;;;8.01;63.54;98871.72;5038551;28;20156;-64
2023/01/16 04:42:17;;;;;;;4.57;2.15;;;;;;;8.01;62.96;98869.03;5048944;28;20149;-64
2023/01/16 04:44:45;;;;;;;5.20;1.15;;;;;;;8.00;63.50;98846.03;5043924;28;20061;-64
2023/01/16 04:47:13;;;;;;;2.97;1.10;;;;;;;8.00;63.23;98840.66;5044447;28;20060;-64
2023/01/16 04:49:40;;;;;;;4.95;1.17;;;;;;;7.99;63.29;98829.16;5041082;28;20096;-64
2023/01/16 04:52:09;;;;;;;4.78;1.30;;;;;;;7.99;63.67;98823.00;5042670;28;20049;-64
2023/01/16 04:54:38;;;;;;;4.00;1.20;;;;;;;8.00;63.47;98813.94;5045731;28;20144;-64
2023/01/16 04:57:06;;;;;;;5.07;1.40;;;;;;;7.99;63.52;98807.78;5032456;28;20130;-64
2023/01/16 04:59:34;;;;;;;2.58;1.42;;;;;;;8.00;63.82;98795.19;5037639;28;20105;-64
2023/01/16 05:02:01;;;;;;;4.85;1.40;;;;;;;8.00;62.96;98787.19;5037264;28;20164;-64
2023/01/16 05:04:29;;;;;;;4.78;1.40;;;;;;;7.99;64.01;98778.34;5039049;28;20068;-64
2023/01/16 05:06:57;;;;;;;3.88;1.55;;;;;;;7.99;63.87;98764.16;5050633;28;20275;-64
2023/01/16 05:09:25;;;;;;;3.13;1.20;;;;;;;7.98;63.45;98759.88;5045712;28;20128;-64
2023/01/16 05:11:54;;;;;;;5.75;1.27;;;;;;;7.98;63.53;98752.66;5042259;28;20404;-64
2023/01/16 05:14:22;;;;;;;3.35;1.20;;;;;;;7.98;64.05;98751.84;5039276;28;20072;-64
2023/01/16 05:16:50;;;;;;;3.88;1.13;;;;;;;7.99;63.62;98745.44;5045001;28;20152;-64
2023/01/16 05:19:18;;;;;;;3.72;1.30;;;;;;;7.98;63.63;98733.13;5040795;28;20132;-64
2023/01/16 05:21:45;;;;;;;2.25;0.98;;;;;;;7.99;64.33;98722.19;5039001;28;20052;-64
2023/01/16 05:24:13;;;;;;;2.75;1.20;;;;;;;7.98;64.04;98717.09;5045008;28;20053;-64
2023/01/16 05:26:41;;;;;;;4.53;1.23;;;;;;;7.97;64.19;98708.25;5045028;28;20065;-64
2023/01/16 05:29:10;;;;;;;6.25;1.27;;;;;;;7.97;64.16;98699.41;5040347;28;20045;-64
2023/01/16 05:31:38;;;;;;;4.05;1.27;;;;;;;7.95;63.97;98683.63;5046815;28;20041;-64
2023/01/16 05:34:05;;;;;;;2.65;1.10;;;;;;;7.94;63.76;98668.66;5042713;28;20100;-64
2023/01/16 05:36:33;;;;;;;1.70;1.00;;;;;;;7.94;63.85;98660.63;5044669;28;20540;-64
2023/01/16 05:39:01;;;;;;;5.50;2.10;;;;;;;7.94;64.28;98652.59;5047690;28;20325;-64
2023/01/16 05:41:29;;;;;;;5.85;1.17;;;;;;;7.96;64.16;98644.31;5045914;28;20051;-64
2023/01/16 05:43:57;;;;;;;5.45;1.77;;;;;;;7.95;64.18;98640.03;5047226;28;20087;-64
2023/01/16 05:46:26;;;;;;;7.00;1.60;;;;;;;7.94;63.69;98633.88;5038799;28;20466;-64
2023/01/16 05:48:54;;;;;;;4.13;1.48;;;;;;;7.93;64.21;98620.75;5040106;28;20050;-64
2023/01/16 05:51:22;;;;;;;4.75;1.15;;;;;;;7.94;64.01;98620.50;5033627;28;20146;-64
2023/01/16 05:53:50;;;;;;;6.22;1.25;;;;;;;7.95;64.14;98605.25;5043006;28;20118;-64
2023/01/16 05:56:22;;;;;;;2.78;1.02;;;;;;;7.91;63.77;98596.16;5041505;28;20076;-63
2023/01/16 05:58:50;;;;;;;5.40;1.20;;;;;;;7.94;64.27;98585.75;5040869;28;20073;-64
2023/01/16 06:01:17;;;;;;;1.90;1.20;;;;;;;7.94;64.11;98592.97;5045623;28;20514;-64
2023/01/16 06:03:46;;;;;;;4.65;1.23;;;;;;;7.92;63.73;98582.53;5051235;28;20119;-65
2023/01/16 06:06:14;;;;;;;1.73;0.77;;;;;;;7.94;64.21;98577.72;5045351;28;20045;-65
2023/01/16 06:08:44;;;;;;;2.63;1.00;;;;;;;7.93;63.88;98570.75;5050588;28;20145;-65
2023/01/16 06:11:12;;;;;;;5.47;1.45;;;;;;;7.94;64.34;98568.88;5029720;28;20117;-65
2023/01/16 06:13:40;;;;;;;3.80;1.50;;;;;;;7.92;63.63;98561.13;5035035;28;20092;-64
2023/01/16 06:16:08;;;;;;;3.65;1.08;;;;;;;7.95;63.87;98557.13;5043658;28;20046;-67
2023/01/16 06:18:35;;;;;;;5.13;1.02;;;;;;;7.95;64.96;98549.91;5042377;28;20104;-64
2023/01/16 06:21:05;;;;;;;6.13;2.00;;;;;;;7.94;64.48;98548.28;5045827;28;20072;-65
2023/01/16 06:23:32;;;;;;;3.50;1.50;;;;;;;7.94;64.79;98542.13;5049007;28;20116;-64
2023/01/16 06:26:01;;;;;;;5.00;1.05;;;;;;;7.93;64.50;98530.63;5041797;28;20050;-64
2023/01/16 06:28:28;;;;;;;2.65;1.10;;;;;;;7.91;65.10;98523.94;5043043;28;20079;-65
2023/01/16 06:30:56;;;;;;;1.88;0.70;;;;;;;8.02;64.14;98515.69;5043477;28;20068;-63
2023/01/16 06:33:24;;;;;;;3.78;1.08;;;;;;;8.20;63.69;98505.59;4695543;28;10000522;-63
2023/01/16 06:35:52;;;;;;;5.82;1.00;;;;;;;8.41;63.67;98493.88;5036601;28;20194;-60
2023/01/16 06:38:21;;;;;;;4.32;1.02;;;;;;;8.49;64.01;98488.00;5038779;28;20053;-62
2023/01/16 06:40:49;;;;;;;5.32;1.45;;;;;;;8.66;63.01;98475.19;5039686;28;20076;-60
2023/01/16 06:43:17;;;;;;;5.47;1.30;;;;;;;8.85;62.85;98462.03;5035660;28;20594;-64
2023/01/16 06:45:45;;;;;;;4.15;0.80;;;;;;;8.95;62.43;98447.81;5036792;28;20053;-63
2023/01/16 06:48:13;;;;;;;2.95;1.10;;;;;;;8.94;61.94;98440.84;5030603;28;20114;-61
2023/01/16 06:50:40;;;;;;;3.65;1.05;;;;;;;8.83;62.83;98429.34;5036097;28;20132;-63
2023/01/16 06:53:08;;;;;;;5.00;1.10;;;;;;;8.72;63.01;98419.72;5037995;28;20060;-62
2023/01/16 06:55:37;;;;;;;4.65;1.70;;;;;;;8.62;62.86;98407.16;5032795;28;20045;-62
2023/01/16 06:58:05;;;;;;;6.22;1.10;;;;;;;8.53;63.30;98400.75;5042111;28;20055;-62
2023/01/16 07:00:34;;;;;;;3.50;1.00;;;;;;;8.43;63.86;98387.38;5031890;28;20050;-61
2023/01/16 07:03:02;;;;;;;3.88;1.02;;;;;;;8.37;64.30;98377.72;5038845;28;20053;-61
2023/01/16 07:05:31;;;;;;;3.03;1.10;;;;;;;8.36;63.78;98376.13;5039076;28;20081;-61
2023/01/16 07:07:59;;;;;;;3.33;1.00;;;;;;;8.31;64.38;98370.75;5057738;28;20123;-62
2023/01/16 07:10:27;;;;;;;6.65;1.70;;;;;;;8.27;64.28;98361.66;5046196;28;20057;-60
2023/01/16 07:12:56;;;;;;;2.42;1.20;;;;;;;8.24;64.99;98346.94;5045458;28;20045;-61
2023/01/16 07:23:50;;;;;;;5.47;1.15;;;;;;;8.13;65.17;98311.34;5055554;28;20080;-61
2023/01/16 07:26:21;;;;;;;4.32;1.10;;;;;;;8.13;65.25;98307.88;5040947;28;20088;-61
2023/01/16 07:28:51;;;;;;;1.80;0.70;;;;;;;8.12;64.88;98296.38;5041143;28;20515;-61
2023/01/16 07:31:20;;;;;;;4.70;0.90;;;;;;;8.12;65.38;98295.56;5049904;28;20081;-61
2023/01/16 07:33:48;;;;;;;1.98;0.80;;;;;;;8.11;65.52;98292.09;5039425;28;20054;-62
2023/01/16 07:36:15;;;;;;;1.48;0.82;;;;;;;8.11;64.88;98280.59;5037795;28;20052;-65
2023/01/16 07:38:43;;;;;;;5.00;0.80;;;;;;;8.10;65.68;98276.31;5038739;28;20140;-62
2023/01/16 07:41:11;;;;;;;1.73;0.90;;;;;;;8.10;65.26;98255.72;5041411;28;20065;-62
2023/01/16 07:43:39;;;;;;;3.47;0.90;;;;;;;8.08;65.14;98260.53;5041986;28;20045;-60
2023/01/16 07:46:08;;;;;;;1.95;0.82;;;;;;;8.07;65.58;98258.91;5027290;28;20081;-61
2023/01/16 07:48:35;;;;;;;6.18;1.95;;;;;;;8.05;65.52;98242.34;5035723;28;20061;-63
2023/01/16 07:51:04;;;;;;;4.43;0.82;;;;;;;8.06;65.38;98243.13;5038342;28;20140;-64
2023/01/16 07:53:32;;;;;;;2.63;0.93;;;;;;;8.03;65.20;98230.31;5032526;28;20057;-64
2023/01/16 07:56:01;;;;;;;4.15;1.20;;;;;;;8.04;65.58;98224.69;5034770;28;20073;-62
2023/01/16 07:58:30;;;;;;;4.05;1.08;;;;;;;8.06;65.40;98229.78;5033521;28;20101;-62
2023/01/16 08:00:58;;;;;;;2.35;0.80;;;;;;;8.04;65.97;98215.84;5035670;28;20045;-61
2023/01/16 08:03:27;;;;;;;2.88;1.65;;;;;;;8.04;65.73;98208.63;5031096;28;20038;-61
2023/01/16 08:05:56;;;;;;;2.33;0.95;;;;;;;8.02;65.63;98197.41;5038609;28;20111;-61
2023/01/16 08:08:25;;;;;;;1.35;0.75;;;;;;;8.03;66.11;98193.66;5030635;28;20093;-63
2023/01/16 08:10:57;;;;;;;4.68;0.82;;;;;;;8.02;65.84;98181.34;5030840;28;20160;-63
2023/01/16 08:13:25;;;;;;;1.70;0.65;;;;;;;8.03;66.00;98182.16;5029923;28;20119;-63
2023/01/16 08:15:53;;;;;;;5.88;1.40;;;;;;;8.02;65.46;98170.66;5027608;28;20076;-62
2023/01/16 08:18:21;;;;;;;1.75;0.80;;;;;;;8.04;65.59;98171.19;5033075;28;20045;-63
2023/01/16 08:20:50;;;;;;;1.75;0.75;;;;;;;8.03;66.20;98160.75;5033685;28;20061;-63
2023/01/16 08:23:20;;;;;;;1.52;0.80;;;;;;;8.01;66.53;98155.69;5036042;28;20068;-62
2023/01/16 08:25:50;;;;;;;2.85;0.80;;;;;;;7.98;66.00;98150.06;5038940;28;20077;-63
2023/01/16 08:28:18;;;;;;;1.98;0.80;;;;;;;8.03;66.17;98148.19;4690535;28;10000580;-61
2023/01/16 08:30:45;;;;;;;1.80;0.77;;;;;;;8.04;65.80;98144.44;5035913;28;20063;-62
2023/01/16 08:33:13;;;;;;;2.10;0.88;;;;;;;8.04;66.25;98139.09;5040503;28;20497;-61
2023/01/16 08:35:41;;;;;;;3.83;1.23;;;;;;;8.03;65.81;98137.50;5028580;28;20132;-62
2023/01/16 08:38:10;;;;;;;1.35;0.70;;;;;;;8.01;65.44;98136.97;5029800;28;20063;-62
2023/01/16 08:40:38;;;;;;;3.10;0.60;;;;;;;8.03;65.90;98128.66;5035227;28;20084;-62
2023/01/16 08:51:27;;;;;;;3.53;0.90;;;;;;;8.14;66.36;98135.59;4977162;28;20144;-62
2023/01/16 08:53:58;;;;;;;2.45;1.00;;;;;;;8.18;66.49;98131.31;4976441;28;20261;-61
2023/01/16 08:56:25;;;;;;;4.20;1.20;;;;;;;8.42;65.75;98120.81;4975719;28;20050;-61
2023/01/16 08:58:53;;;;;;;1.83;1.00;;;;;;;8.56;65.28;98113.78;4981583;28;20092;-61
2023/01/16 09:01:21;;;;;;;1.45;0.55;;;;;;;8.72;64.75;98109.13;4974625;28;20118;-61
2023/01/16 09:03:49;;;;;;;2.28;0.65;;;;;;;8.89;64.49;98106.88;4990630;28;20109;-61
2023/01/16 09:06:17;;;;;;;2.88;0.80;;;;;;;8.98;64.12;98099.03;4977375;28;20046;-61
2023/01/16 09:08:44;;;;;;;2.83;0.68;;;;;;;9.24;63.36;98100.44;4979240;28;20327;-62
2023/01/16 09:14:00;;;;;;;0.95;0.55;;;;;;;9.55;62.09;98097.50;4982549;28;20313;-61
2023/01/16 09:16:28;;;;;;;1.25;0.68;;;;;;;9.61;62.19;98094.50;4982009;28;20061;-62
2023/01/16 09:18:56;;;;;;;1.48;0.82;;;;;;;9.67;61.63;98097.94;4970221;28;20055;-62
2023/01/16 09:21:24;;;;;;;2.22;0.63;;;;;;;9.76;61.17;98085.50;4976474;28;20053;-62
2023/01/16 09:23:53;;;;;;;0.50;0.50;;;;;;;9.85;61.39;98083.00;4976906;28;20059;-61
2023/01/16 09:26:22;;;;;;;1.55;0.65;;;;;;;10.01;60.75;98079.06;5035389;28;20061;-61
2023/01/16 09:28:50;;;;;;;1.45;0.50;;;;;;;9.97;61.11;98080.72;5034291;28;20178;-62
2023/01/16 09:31:19;;;;;;;2.85;0.80;;;;;;;10.00;60.76;98080.97;5028865;28;20144;-61
2023/01/16 09:33:48;;;;;;;0.75;0.50;;;;;;;9.78;61.50;98086.03;5037332;28;20052;-61
2023/01/16 09:36:16;;;;;;;3.35;0.70;;;;;;;9.52;62.07;98082.00;5039147;28;20049;-61
2023/01/16 09:38:44;;;;;;;2.15;0.60;;;;;;;9.35;62.79;98080.53;5037380;28;20049;-61
2023/01/16 09:43:35;;;;;;;0.63;0.50;;;;;;;9.25;62.96;98071.78;5043400;28;20055;-61
2023/01/16 09:44:11;;;;;;;1.02;0.65;;;;;;;9.08;63.81;98066.81;5034148;28;20167;-61
2023/01/16 09:46:43;;;;;;;0.55;0.50;;;;;;;9.01;63.66;98075.19;5039470;28;20069;-61
2023/01/16 09:49:19;;;;;;;0.98;0.55;;;;;;;9.10;64.05;98064.66;5038008;28;20113;-61
2023/01/16 10:00:24;;;;;;;0.57;0.40;;;;;;;9.72;62.01;98039.69;4997108;28;20828;-61
2023/01/16 10:02:52;;;;;;;4.40;0.65;;;;;;;9.84;61.60;98041.97;4997667;28;20495;-61
2023/01/16 10:05:23;;;;;;;2.80;0.65;;;;;;;9.98;61.19;98036.72;4996970;28;20267;-61
2023/01/16 10:08:00;;;;;;;0.45;0.35;;;;;;;10.04;60.80;98032.88;4992848;28;20669;-62
2023/01/16 10:10:41;;;;;;;0.50;0.50;;;;;;;10.13;60.51;98023.13;5000588;28;20057;-61
2023/01/16 10:13:21;;;;;;;4.07;0.70;;;;;;;10.07;60.26;98019.69;4991653;28;20052;-62
2023/01/16 10:16:03;;;;;;;1.60;0.93;;;;;;;10.05;60.60;98007.66;5002187;28;20057;-62
2023/01/16 10:18:41;;;;;;;3.63;0.70;;;;;;;10.12;60.61;98005.41;4992631;28;20053;-66
2023/01/16 10:21:34;;;;;;;2.45;0.60;;;;;;;10.20;60.41;97998.63;4992649;28;20046;-63
2023/01/16 10:24:09;;;;;;;1.45;0.65;;;;;;;10.21;60.51;97998.34;4985484;28;20068;-63
2023/01/16 10:26:48;;;;;;;0.40;0.40;;;;;;;10.29;60.34;97989.66;4993636;28;20082;-61
2023/01/16 10:29:23;;;;;;;0.63;0.40;;;;;;;10.31;60.30;97987.47;4990777;28;20066;-62
2023/01/16 10:31:59;;;;;;;0.65;0.43;;;;;;;10.37;60.20;97977.47;4996804;28;20056;-62
2023/01/16 10:34:32;;;;;;;0.90;0.50;;;;;;;10.48;60.33;97983.44;4996047;28;20050;-63
2023/01/16 10:37:01;;;;;;;1.75;0.60;;;;;;;10.46;60.11;97974.88;5014887;28;20300;-63
2023/01/16 10:39:32;;;;;;;0.30;0.30;;;;;;;10.42;60.19;97972.78;5035498;28;20057;-65
2023/01/16 10:50:40;;;;;;;0.75;0.50;;;;;;;10.53;59.99;97940.41;5008540;28;20045;-63
2023/01/16 10:53:10;;;;;;;7.95;0.50;;;;;;;10.53;60.02;97945.78;5010609;28;20046;-63
2023/01/16 10:55:40;;;;;;;0.40;0.40;;;;;;;10.50;60.30;97936.44;5011234;28;20093;-64
2023/01/16 10:58:22;;;;;;;0.40;0.40;;;;;;;10.51;60.35;97934.53;5014413;28;20060;-62
2023/01/16 11:00:51;;;;;;;0.32;0.22;;;;;;;10.49;60.02;97916.03;5012203;28;20096;-63
2023/01/16 11:03:28;;;;;;;0.30;0.30;;;;;;;10.46;60.23;97913.13;5012796;28;20093;-63
2023/01/16 11:06:12;;;;;;;0.98;0.60;;;;;;;10.34;60.49;97910.94;5025184;28;20092;-63
2023/01/16 11:08:42;;;;;;;0.45;0.40;;;;;;;10.15;61.07;97900.19;5012691;28;20042;-63
2023/01/16 11:19:30;;;;;;;0.73;0.45;;;;;;;9.54;63.31;97882.22;5009091;28;20126;-63
2023/01/16 11:22:01;;;;;;;0.57;0.50;;;;;;;9.45;63.49;97874.03;5011872;28;20109;-63
2023/01/16 11:24:33;;;;;;;0.63;0.50;;;;;;;9.40;63.45;97859.91;5030553;28;20125;-63
2023/01/16 11:27:04;;;;;;;0.60;0.60;;;;;;;9.37;63.79;97855.09;5029788;28;20049;-63
2023/01/16 11:29:38;;;;;;;0.63;0.50;;;;;;;9.31;63.74;97862.41;5033100;28;20110;-63
2023/01/16 11:32:09;;;;;;;0.85;0.60;;;;;;;9.25;64.61;97852.03;5034940;28;20046;-63
2023/01/16 11:34:44;;;;;;;0.52;0.32;;;;;;;9.21;64.40;97851.03;5036137;28;20079;-63
2023/01/16 11:37:16;;;;;;;1.27;0.65;;;;;;;9.14;64.35;97838.75;5038848;28;20050;-63
2023/01/16 11:39:49;;;;;;;0.82;0.60;;;;;;;9.21;64.84;97838.41;5030503;28;20065;-63
2023/01/16 11:47:53;;;;;;;1.90;0.77;;;;;;;9.75;62.53;97819.19;5041037;28;20049;-63
2023/01/16 11:50:33;;;;;;;0.40;0.40;;;;;;;9.85;62.07;97804.06;5046436;28;20076;-63
2023/01/16 11:53:01;;;;;;;0.65;0.47;;;;;;;10.07;61.66;97806.91;5041170;28;20050;-63
2023/01/16 11:55:36;;;;;;;0.85;0.45;;;;;;;10.23;61.12;97796.75;5043055;28;20172;-63
2023/01/16 11:58:12;;;;;;;1.23;0.50;;;;;;;10.35;60.76;97791.72;5036716;28;20075;-63
2023/01/16 12:00:48;;;;;;;3.25;0.45;;;;;;;10.45;60.39;97791.53;5045460;28;20055;-63
2023/01/16 12:03:45;;;;;;;1.10;0.88;;;;;;;10.58;60.14;97785.38;5038934;28;20052;-63
2023/01/16 12:06:32;;;;;;;0.57;0.57;;;;;;;10.62;59.93;97772.16;5035732;28;20072;-63
2023/01/16 12:09:27;;;;;;;0.28;0.28;;;;;;;10.67;59.60;97772.06;5039485;28;20845;-63
2023/01/16 12:15:02;;;;;;;0.90;0.50;;;;;;;10.26;60.94;97764.75;5034196;28;20091;-62
2023/01/16 12:17:48;;;;;;;0.40;0.40;;;;;;;10.05;61.66;97756.22;4692068;28;10000372;-63
2023/01/16 12:20:26;;;;;;;0.38;0.38;;;;;;;9.96;62.40;97746.47;5038950;28;20340;-62
2023/01/16 12:23:18;;;;;;;0.50;0.40;;;;;;;9.83;62.41;97747.22;5026616;28;20054;-62
2023/01/16 12:25:55;;;;;;;0.93;0.40;;;;;;;9.74;62.53;97745.19;5029536;28;20059;-63
2023/01/16 12:28:33;;;;;;;0.40;0.40;;;;;;;9.70;62.88;97738.03;5037243;28;20140;-63
2023/01/16 12:31:41;;;;;;;1.00;0.57;;;;;;;9.65;63.22;97738.91;5035235;28;20449;-63
2023/01/16 12:34:29;;;;;;;0.47;0.47;;;;;;;9.64;62.96;97729.28;5033199;28;20049;-62
2023/01/16 12:37:20;;;;;;;0.40;0.40;;;;;;;9.63;63.47;97726.88;5036034;28;20121;-62
2023/01/16 12:39:56;;;;;;;0.32;0.32;;;;;;;9.51;63.37;97724.66;5032552;28;20113;-62
2023/01/16 12:45:29;;;;;;;0.90;0.45;;;;;;;9.41;64.36;97714.06;5041743;28;20054;-62
2023/01/16 12:48:09;;;;;;;1.10;0.50;;;;;;;9.35;64.04;97708.00;5040232;28;20057;-62
2023/01/16 12:50:57;;;;;;;0.68;0.40;;;;;;;9.29;64.67;97693.06;5040012;28;20367;-62
2023/01/16 12:53:44;;;;;;;0.55;0.50;;;;;;;9.27;65.21;97694.44;5033074;28;20136;-64
2023/01/16 12:56:29;;;;;;;0.73;0.50;;;;;;;9.24;64.65;97689.66;5039321;28;20045;-63
2023/01/16 12:59:03;;;;;;;1.52;0.65;;;;;;;9.20;65.33;97694.03;5025858;28;20297;-64
2023/01/16 13:01:37;;;;;;;0.47;0.47;;;;;;;9.23;65.16;97680.84;5037690;28;20109;-63
2023/01/16 13:04:13;;;;;;;0.35;0.35;;;;;;;9.32;64.44;97676.41;5035849;28;20425;-67
2023/01/16 13:06:47;;;;;;;1.30;0.50;;;;;;;9.58;64.13;97679.50;5029793;28;20077;-64